CYXR

Earlton (Timiskaming Regional) Airport

Earlton, Ontario, Canada
METAR CYXR 241300Z AUTO 10011KT 9SM OVC050 04/M01 A3047 RMK SLP332
Observed Flight Rules
Sep-24 @ 13:00 UTC (35 minutes ago) Visual Flight Rules
Wind Visibility Clouds
100° at 11 knots 9 miles
  • Overcast at 5,000' AGL
Temperatures Readings
Current 4°C / 39°F
Dewpoint -1°C / 30°F
Humidity 70%
Altimeter 30.47" Hg
Pressure 1033.2 hPa
Elevation 243
METAR CYXR 241300Z AUTO 10011KT 9SM OVC050 04/M01 A3047 RMK SLP332
Observed Flight Rules
Sep-24 @ 13:00 UTC
(35 minutes ago)
VFR
Wind Visibility
100° at 11 knots 9 miles
Clouds
  • Overcast at 5,000' AGL
Temperature Dewpoint
4°C / 39°F -1°C / 30°F
Humidity Altimeter Pressure
70% 30.47" Hg 1033.2 hPa